El Prado, NM (87529)

7:14 PM MDT on April 28, 2017 (GMT -0600)
Valverde | | Change Station

Elev 6923 ft 36.41 °N, 105.58 °W | Updated 1 minute ago

Partly Cloudy
Partly Cloudy
41.6 °F
Feels Like 36 °F
N
10.0
Wind Variable Wind from WSW
Gusts 13.0 mph

Today
High -- | Low -- °F
--% Chance of Precip.
Yesterday
High -- | Low -- °F
Precip. -- in
Pressure 29.76 in
Visibility 10.0 miles
Clouds Clear
Windchill 36 °F
Dew Point 33 °F
Humidity 72%
Rainfall 0.09 in
Snow Depth Not available.
6:12 AM 7:48 PM
Waxing Crescent, 9% visible
METAR KAXX 290055Z AUTO 25006KT 10SM CLR 01/M04 A2976 RMK AO2 T00051038
Pressure 29.76 in
Visibility 10.0 miles
Clouds Clear
Windchill 36 °F
Dew Point 33 °F
Humidity 72%
Rainfall 0.09 in
Snow Depth Not available.
6:12 AM 7:48 PM
Waxing Crescent, 9% visible
METAR KAXX 290055Z AUTO 25006KT 10SM CLR 01/M04 A2976 RMK AO2 T00051038

Get Severe Weather Alerts

Thanks for signing up!

Be on the lookout for a verification email in your inbox.

You'll start receiving the daily forecast at 8 AM.

×

10-Day Weather Forecast

Almanac

Astronomy

Apr. 28, 2017 Rise Set
Actual Time
Civil Twilight
Nautical Twilight
Astronomical Twilight
Moon
Length of Visible Light
Length of Day
Tomorrow will be .
, % of the Moon is Illuminated

Today's Extremes

State Highs State Lows

Community

WunderPhotos

WunderBlog® & News

Nearby

Air Quality

  Air Quality AQ Index Pollutant
Not available.

Snow Depth

Station Depth Elevation

Earthquake Activity

City Distance Mag. Time & Date
Minimum magnitude displayed is 2.5.

Coastal Water Temperatures

Place Temperature

Stations

Nearby Weather Stations

Station Location Temp. Windchill Dew Point Humidity Wind Precip. Elev Updated Type
                   

Watches & Warnings

There are currently no watches in effect.